| Date | Time | Temp. (oF) | Dew Point (oF) | Rel. Hum. (%) | Press. (in.) | Wind Dir. | Wind Speed (mph) | Hourly Rainfall (in.) |
|
|---|---|---|---|---|---|---|---|---|---|
| 1 | 01/04 | 00:00 | 15 | 5 | 65 | 30.24 | NW | 5 | 0.00 |
| 2 | 01/03 | 23:00 | 16 | 4 | 60 | 30.24 | NNW | 10 | 0.00 |
| 3 | 01/03 | 22:00 | 18 | 7 | 63 | 30.23 | NNW | 6 | 0.00 |
| 4 | 01/03 | 21:00 | 19 | 9 | 65 | 30.22 | N | 8 | 0.00 |
| 5 | 01/03 | 20:00 | 20 | 9 | 64 | 30.20 | NW | 10 | 0.00 |
| 6 | 01/03 | 19:00 | 20 | 11 | 68 | 30.17 | NNW | 4 | 0.00 |
| 7 | 01/03 | 18:00 | 21 | 13 | 72 | 30.14 | NW | 4 | 0.00 |
| 8 | 01/03 | 17:00 | 22 | 0 | 39 | 30.10 | SW | 7 | 0.00 |
| 9 | 01/03 | 16:00 | 23 | 2 | 40 | 30.06 | NW | 12 | 0.00 |
| 10 | 01/03 | 15:00 | 24 | 3 | 41 | 30.02 | NNW | 11 | 0.00 |
| 11 | 01/03 | 14:00 | 24 | 3 | 40 | 30.00 | ESE | 9 | 0.00 |
| 12 | 01/03 | 13:00 | 26 | 5 | 41 | 29.99 | N | 15 | 0.00 |
| 13 | 01/03 | 12:00 | 27 | 5 | 39 | 29.99 | N | 14 | 0.00 |
| 14 | 01/03 | 11:00 | 26 | 6 | 44 | 30.01 | NNW | 14 | 0.00 |
| 15 | 01/03 | 10:00 | 25 | 12 | 59 | 30.02 | N | 8 | 0.00 |
| 16 | 01/03 | 09:00 | 24 | 15 | 70 | 30.01 | N | 12 | 0.00 |
| 17 | 01/03 | 08:00 | 24 | 12 | 61 | 29.98 | NNE | 6 | 0.00 |
| 18 | 01/03 | 07:00 | 25 | 14 | 65 | 29.97 | NNE | 5 | 0.00 |
| 19 | 01/03 | 06:00 | 25 | 13 | 62 | 29.94 | WNW | 7 | 0.00 |
| 20 | 01/03 | 05:00 | 24 | 19 | 84 | 29.92 | NW | 3 | 0.00 |
| 21 | 01/03 | 04:00 | 25 | 19 | 81 | 29.91 | WSW | 3 | 0.00 |
| 22 | 01/03 | 03:00 | 25 | 19 | 80 | 29.91 | SW | 4 | 0.00 |
| 23 | 01/03 | 02:00 | 25 | 19 | 80 | 29.91 | WSW | 4 | 0.00 |
| 24 | 01/03 | 01:00 | 26 | 20 | 79 | 29.91 | SW | 4 | 0.00 |